Etusivu
METAR-TAF:

METAR-TAF

Lentoasemat :

Weno, Mikronesia

Leveyspiiri: 07-28N, Pituuspiiri: 151-51E, korkeus merenpinnasta: 3 m

Tämänhetkinen sää

Tämä raportti tehtiin 20 minuuttia sitten, kello 04.50 UTC
Tuuli 3 kn eri suunnista
Lämpötila 31°C
Kosteus 89%
Ilmanpaine 1007 hPa
Näkyvyys: 24.1 km
Muutamia pilviä 1400 ft:n korkeudessa
Hajonneita pilviä 12000 ft:n korkeudessa
Pilvistä 28000 ft:n korkeudessa

METAR: PTKK 170450Z VRB03KT 15SM FEW014 BKN120 OVC280 31/29 A2973 RMK SLP071 T03110286

Aika: 15:10 (05:10 UTC)

Sääennuste

Tämä raportti tehtiin 5 tuntia ja 50 minuuttia sitten, kello 23.20 UTC
Ennuste voimassa 17. päivästä klo 00 UTC - 17. päivään klo 24 UTC
Tuuli 5 kn eri suunnista
Näkyvyys: 10 km
Muutamia pilviä 1400 ft:n korkeudessa
Hajonneita pilviä 12000 ft:n korkeudessa
sadekuuroja näköpiirissä

TAF: PTKK 162320Z 1700/1724 VRB05KT P6SM VCSH FEW014 BKN120

Säähavainnot ja -ennusteet yli 4000 lentoasemalta (METAR- ja TAF-raportit).

Käytössä olevat sääasemat on merkitty karttaan keltaisilla ja punaisilla pisteillä.

Aseta hiiri pisteen päälle nähdäksesi sääaseman nimen.

Klikkaa sitten nähdäksesi säähavainnot ja -ennusteet.

Kartan vaihtaminen: klikkaa mustalla rastilla varustettuja vihreitä pisteitä, niin voit zoomata sisään; viivalla varustettua vihreää pistettä, niin voit zoomata ulos tai vihreitä nuolia, niin pääset viereisille kartoille.


METAR-TAF: